createdAt,value
2019-03-25T00:01:49.731Z,79.50
2019-03-25T00:04:18.386Z,80.40
2019-03-25T00:06:46.998Z,80.30
2019-03-25T00:09:15.429Z,80.20
2019-03-25T00:11:43.870Z,80.00
2019-03-25T00:14:12.302Z,79.60
2019-03-25T00:16:40.977Z,79.70
2019-03-25T00:19:09.647Z,80.20
2019-03-25T00:21:38.081Z,81.00
2019-03-25T00:24:06.502Z,80.90
2019-03-25T00:26:34.929Z,81.00
2019-03-25T00:29:03.357Z,81.20
2019-03-25T00:31:31.790Z,80.90
2019-03-25T00:34:00.219Z,80.60
2019-03-25T00:36:28.659Z,80.30
2019-03-25T00:38:57.077Z,80.30
2019-03-25T00:41:25.720Z,79.90
2019-03-25T00:43:54.169Z,80.00
2019-03-25T00:46:22.815Z,79.90
2019-03-25T00:48:51.275Z,80.40
2019-03-25T00:51:19.701Z,80.00
2019-03-25T00:53:48.382Z,79.70
2019-03-25T00:56:16.821Z,79.20
2019-03-25T00:58:45.241Z,79.60
2019-03-25T01:01:13.815Z,79.60
2019-03-25T01:03:42.366Z,79.40
2019-03-25T01:06:11.081Z,78.80
2019-03-25T01:08:39.757Z,78.40
2019-03-25T01:11:08.502Z,78.20
2019-03-25T01:13:36.959Z,78.00
2019-03-25T01:16:05.460Z,77.70
2019-03-25T01:18:33.878Z,77.60
2019-03-25T01:21:02.301Z,77.50
2019-03-25T01:23:30.765Z,77.40
2019-03-25T01:25:59.447Z,77.20
2019-03-25T01:28:28.150Z,77.30
2019-03-25T01:30:56.582Z,77.20
2019-03-25T01:33:25.215Z,77.30
2019-03-25T01:35:53.684Z,77.20
2019-03-25T01:38:22.176Z,77.50
2019-03-25T01:40:50.609Z,77.60
2019-03-25T01:43:19.030Z,77.40
2019-03-25T01:45:47.464Z,77.50
2019-03-25T01:48:15.885Z,77.30
2019-03-25T01:50:44.310Z,77.10
2019-03-25T01:53:12.951Z,77.20
2019-03-25T01:55:41.425Z,77.00
2019-03-25T01:58:09.841Z,77.00
2019-03-25T02:00:38.647Z,77.10
2019-03-25T02:03:07.102Z,77.30
2019-03-25T02:05:35.533Z,77.20
2019-03-25T02:08:04.031Z,77.30
2019-03-25T02:10:32.685Z,77.60
2019-03-25T02:13:01.138Z,77.70
2019-03-25T02:15:29.795Z,77.70
2019-03-25T02:17:58.482Z,77.70
2019-03-25T02:20:27.097Z,78.10
2019-03-25T02:22:55.673Z,78.70
2019-03-25T02:25:25.784Z,79.10
2019-03-25T02:27:54.462Z,78.90
2019-03-25T02:30:22.883Z,78.90
2019-03-25T02:32:51.321Z,78.90
2019-03-25T02:35:19.812Z,79.00
2019-03-25T02:37:48.241Z,78.90
2019-03-25T02:40:16.664Z,78.90
2019-03-25T02:42:45.090Z,79.30
2019-03-25T02:45:13.510Z,79.50
2019-03-25T02:47:41.943Z,79.80
2019-03-25T02:50:10.498Z,80.00
2019-03-25T02:52:39.182Z,80.10
2019-03-25T02:55:07.900Z,80.60
2019-03-25T02:57:36.348Z,80.10
2019-03-25T03:00:07.075Z,80.20
2019-03-25T03:02:35.502Z,80.60
2019-03-25T03:05:05.189Z,80.20
2019-03-25T03:07:33.627Z,81.00
2019-03-25T03:10:02.052Z,80.70
2019-03-25T03:12:30.483Z,80.90
2019-03-25T03:14:58.894Z,81.30
2019-03-25T03:17:27.323Z,81.90
2019-03-25T03:19:55.745Z,82.00
2019-03-25T03:22:24.183Z,81.80
2019-03-25T03:24:52.598Z,82.30
2019-03-25T03:27:21.048Z,83.40
2019-03-25T03:29:49.450Z,83.80
2019-03-25T03:32:17.883Z,84.00
2019-03-25T03:34:46.382Z,84.70
2019-03-25T03:37:14.882Z,85.40
2019-03-25T03:39:43.568Z,85.90
2019-03-25T03:42:11.983Z,86.20
2019-03-25T03:44:40.649Z,86.10
2019-03-25T03:47:09.115Z,85.80
2019-03-25T03:49:37.553Z,85.70
2019-03-25T03:52:06.045Z,85.70
2019-03-25T03:54:34.550Z,86.20
2019-03-25T03:57:03.359Z,86.30
2019-03-25T03:59:32.037Z,86.30
2019-03-25T04:02:00.489Z,86.30
2019-03-25T04:04:28.917Z,86.30
2019-03-25T04:06:57.593Z,86.30
2019-03-25T04:09:26.251Z,86.20
2019-03-25T04:11:54.709Z,86.10
2019-03-25T04:14:23.138Z,86.30
2019-03-25T04:16:51.789Z,86.30
2019-03-25T04:19:20.511Z,86.20
2019-03-25T04:21:48.921Z,86.00
2019-03-25T04:24:17.357Z,86.10
2019-03-25T04:26:45.855Z,86.20
2019-03-25T04:29:14.516Z,86.20
2019-03-25T04:31:42.965Z,86.10
2019-03-25T04:34:11.394Z,85.90
2019-03-25T04:36:39.814Z,85.80
2019-03-25T04:39:08.787Z,85.40
2019-03-25T04:41:37.514Z,85.00
2019-03-25T04:44:05.981Z,85.00
2019-03-25T04:46:34.655Z,85.00
2019-03-25T04:49:03.335Z,84.90
2019-03-25T04:51:31.758Z,84.60
2019-03-25T04:54:00.177Z,85.10
2019-03-25T04:56:38.949Z,85.40
2019-03-25T04:58:58.989Z,85.60
2019-03-25T05:01:27.655Z,85.90
2019-03-25T05:03:56.087Z,86.70
2019-03-25T05:06:24.586Z,86.90
2019-03-25T05:08:53.017Z,86.80
2019-03-25T05:11:30.319Z,86.90
2019-03-25T05:13:51.814Z,87.30
2019-03-25T05:16:20.274Z,87.70
2019-03-25T05:18:48.917Z,87.70
2019-03-25T05:21:17.374Z,88.10
2019-03-25T05:23:46.069Z,88.10
2019-03-25T05:26:14.708Z,88.10
2019-03-25T05:28:43.416Z,87.90
2019-03-25T05:31:12.093Z,87.40
2019-03-25T05:33:40.750Z,87.40
2019-03-25T05:36:09.182Z,87.00
2019-03-25T05:38:37.848Z,87.20
2019-03-25T05:41:06.557Z,87.20
2019-03-25T05:43:35.279Z,86.80
2019-03-25T05:46:03.745Z,86.70
2019-03-25T05:48:32.178Z,85.90
2019-03-25T05:51:00.598Z,85.50
2019-03-25T05:53:29.032Z,85.40
2019-03-25T05:55:57.677Z,85.40
2019-03-25T05:58:26.224Z,85.10
2019-03-25T06:00:54.669Z,84.40
2019-03-25T06:03:23.321Z,83.80
2019-03-25T06:05:51.783Z,82.70
2019-03-25T06:08:20.204Z,81.50
2019-03-25T06:10:48.641Z,80.20
2019-03-25T06:13:17.307Z,79.70
2019-03-25T06:15:45.755Z,79.00
2019-03-25T06:18:14.435Z,78.90
2019-03-25T06:20:42.857Z,78.50
2019-03-25T06:23:11.277Z,78.50
2019-03-25T06:25:39.715Z,78.30
2019-03-25T06:28:08.126Z,78.00
2019-03-25T06:30:36.559Z,77.80
2019-03-25T06:33:12.422Z,76.90
2019-03-25T06:35:35.305Z,75.60
2019-03-25T06:38:03.966Z,74.70
2019-03-25T06:40:32.398Z,73.40
2019-03-25T06:43:00.809Z,72.00
2019-03-25T06:45:29.233Z,71.30
2019-03-25T06:47:57.658Z,70.40
2019-03-25T06:50:26.299Z,68.80
2019-03-25T06:52:55.010Z,67.30
2019-03-25T06:55:23.433Z,65.80
2019-03-25T06:57:52.104Z,64.70
2019-03-25T07:00:20.855Z,64.00
2019-03-25T07:02:49.611Z,62.90
2019-03-25T07:05:18.103Z,62.70
2019-03-25T07:07:46.523Z,62.10
2019-03-25T07:10:18.087Z,60.60
2019-03-25T07:12:46.599Z,60.50
2019-03-25T07:15:16.639Z,60.70
2019-03-25T07:17:45.307Z,60.80
2019-03-25T07:20:14.805Z,61.00
2019-03-25T07:22:43.218Z,61.30
2019-03-25T07:25:12.040Z,59.60
2019-03-25T07:27:40.493Z,59.10
2019-03-25T07:30:11.313Z,58.30
2019-03-25T07:32:39.498Z,56.50
2019-03-25T07:35:08.020Z,55.60
2019-03-25T07:37:36.437Z,55.80
2019-03-25T07:40:08.222Z,56.00
2019-03-25T07:42:36.999Z,55.00
2019-03-25T07:45:07.939Z,54.50
2019-03-25T07:47:36.656Z,54.80
2019-03-25T07:50:06.562Z,54.60
2019-03-25T07:52:34.990Z,54.80
2019-03-25T07:55:04.053Z,54.40
2019-03-25T07:57:32.496Z,54.80
2019-03-25T08:00:00.898Z,55.10
2019-03-25T08:02:29.558Z,54.70
2019-03-25T08:04:58.030Z,54.80
2019-03-25T08:07:26.522Z,54.60
2019-03-25T08:09:54.926Z,54.70
2019-03-25T08:12:23.564Z,52.80
2019-03-25T08:14:52.041Z,51.10
2019-03-25T08:17:20.534Z,50.20
2019-03-25T08:19:48.966Z,50.20
2019-03-25T08:22:17.396Z,50.00
2019-03-25T08:24:45.810Z,48.70
2019-03-25T08:27:14.314Z,48.10
2019-03-25T08:29:42.730Z,47.30
2019-03-25T08:32:11.173Z,46.50
2019-03-25T08:34:39.583Z,42.00
2019-03-25T08:37:08.027Z,40.50
2019-03-25T08:39:36.611Z,37.90
2019-03-25T08:42:05.126Z,36.60
2019-03-25T08:44:33.546Z,37.10
2019-03-25T08:47:01.966Z,37.40
2019-03-25T08:49:30.449Z,37.30
2019-03-25T08:51:58.876Z,36.20
2019-03-25T08:54:27.545Z,36.60
2019-03-25T08:56:56.053Z,37.10
2019-03-25T08:59:24.476Z,35.80
2019-03-25T09:01:52.906Z,36.00
2019-03-25T09:04:21.330Z,36.90
2019-03-25T09:06:49.758Z,35.00
2019-03-25T09:09:18.422Z,34.80
2019-03-25T09:11:46.864Z,35.10
2019-03-25T09:14:15.282Z,35.20
2019-03-25T09:16:43.738Z,36.00
2019-03-25T09:19:12.414Z,36.30
2019-03-25T09:21:40.841Z,37.00
2019-03-25T09:24:09.259Z,37.10
2019-03-25T09:26:37.956Z,36.40
2019-03-25T09:29:06.663Z,36.60
2019-03-25T09:31:37.096Z,36.70
2019-03-25T09:34:05.381Z,36.00
2019-03-25T09:36:33.827Z,34.60
2019-03-25T09:39:02.596Z,32.60
2019-03-25T09:41:31.058Z,33.10
2019-03-25T09:43:59.477Z,31.60
2019-03-25T09:46:27.902Z,30.40
2019-03-25T09:48:56.314Z,28.10
2019-03-25T09:51:25.010Z,26.70
2019-03-25T09:53:53.477Z,27.00
2019-03-25T09:56:21.965Z,27.10
2019-03-25T09:58:50.385Z,26.20
2019-03-25T10:01:18.801Z,26.50
2019-03-25T10:03:47.305Z,27.00
2019-03-25T10:06:16.017Z,26.50
2019-03-25T10:28:33.502Z,11.90
2019-03-25T10:31:01.919Z,13.70
2019-03-25T10:33:30.338Z,15.60
2019-03-25T10:35:58.767Z,15.00
2019-03-25T10:38:27.202Z,13.60
2019-03-25T10:40:55.621Z,10.30
2019-03-25T10:43:24.267Z,7.50
2019-03-25T10:45:52.678Z,7.20
2019-03-25T10:48:21.318Z,2.60
2019-03-25T10:50:49.998Z,2.30
2019-03-25T10:53:18.468Z,4.20
2019-03-25T10:55:46.872Z,5.40
2019-03-25T10:58:15.307Z,6.50
2019-03-25T11:00:43.817Z,5.20
2019-03-25T11:03:12.250Z,5.50
2019-03-25T11:05:40.898Z,4.40
2019-03-25T11:08:09.613Z,2.00
2019-03-25T11:10:38.077Z,1.70
2019-03-25T11:13:06.486Z,2.50
2019-03-25T11:15:34.902Z,1.70
2019-03-25T11:18:05.577Z,2.80
2019-03-25T11:20:33.522Z,1.90
2019-03-25T11:23:01.963Z,1.00
2019-03-25T11:25:30.385Z,1.00
2019-03-25T11:27:59.086Z,1.00
2019-03-25T11:30:49.508Z,1.00
2019-03-25T11:33:17.934Z,1.00
2019-03-25T11:35:46.558Z,1.00
2019-03-25T11:38:14.981Z,1.00
2019-03-25T11:40:43.630Z,1.00
2019-03-25T11:43:12.271Z,1.00
2019-03-25T11:45:40.963Z,1.00
2019-03-25T11:48:09.392Z,1.00
2019-03-25T11:50:37.823Z,1.00
2019-03-25T11:53:06.325Z,1.40
2019-03-25T11:55:34.819Z,3.10
2019-03-25T11:58:03.473Z,4.90
2019-03-25T12:00:32.205Z,6.20
2019-03-25T12:03:00.961Z,6.00
2019-03-25T12:05:30.077Z,4.10
2019-03-25T12:07:58.843Z,4.60
2019-03-25T12:10:27.533Z,6.00
2019-03-25T12:12:56.227Z,7.30
2019-03-25T12:15:24.850Z,8.30
2019-03-25T12:17:53.273Z,9.80
2019-03-25T12:20:22.366Z,10.30
2019-03-25T12:22:50.786Z,11.30
2019-03-25T12:25:19.199Z,11.50
2019-03-25T12:27:47.628Z,11.70
2019-03-25T12:30:16.982Z,9.30
2019-03-25T12:32:45.790Z,7.20
2019-03-25T12:35:14.349Z,2.60
2019-03-25T12:37:42.753Z,1.00
2019-03-25T12:40:11.256Z,1.00
2019-03-25T12:42:39.738Z,1.00
2019-03-25T12:45:08.334Z,1.00
2019-03-25T12:47:36.987Z,2.40
2019-03-25T12:50:07.039Z,1.00
2019-03-25T12:52:35.518Z,1.00
2019-03-25T12:55:05.186Z,1.30
2019-03-25T12:57:33.830Z,3.50
2019-03-25T13:00:02.362Z,6.00
2019-03-25T13:02:31.139Z,7.60
2019-03-25T13:04:59.558Z,8.80
2019-03-25T13:07:28.242Z,9.80
2019-03-25T13:09:56.931Z,10.20
2019-03-25T13:12:25.348Z,10.60
2019-03-25T13:14:53.776Z,11.40
2019-03-25T13:17:22.201Z,11.60
2019-03-25T13:19:50.634Z,12.40
2019-03-25T13:22:19.317Z,15.10
2019-03-25T13:24:47.974Z,19.00
2019-03-25T13:27:16.430Z,21.10
2019-03-25T13:29:52.382Z,22.10
2019-03-25T13:32:15.011Z,23.30
2019-03-25T13:34:43.443Z,24.40
2019-03-25T13:37:11.859Z,25.50
2019-03-25T13:39:40.540Z,26.10
2019-03-25T13:42:08.957Z,26.10
2019-03-25T13:44:37.397Z,28.00
2019-03-25T13:47:05.817Z,27.60
2019-03-25T13:49:34.250Z,26.80
2019-03-25T13:52:02.890Z,22.60
2019-03-25T13:54:31.597Z,20.20
2019-03-25T13:57:00.275Z,19.30
2019-03-25T13:59:29.042Z,19.10
2019-03-25T14:01:57.535Z,20.40
2019-03-25T14:04:26.070Z,19.70
2019-03-25T14:06:54.482Z,18.50
2019-03-25T14:09:22.972Z,16.10
2019-03-25T14:11:51.613Z,15.50
2019-03-25T14:14:20.074Z,17.40
2019-03-25T14:16:48.511Z,20.10
2019-03-25T14:19:17.123Z,22.60
2019-03-25T14:21:45.550Z,24.90
2019-03-25T14:24:13.971Z,27.50
2019-03-25T14:26:42.401Z,29.00
2019-03-25T14:29:10.810Z,30.00
2019-03-25T14:31:39.248Z,28.60
2019-03-25T14:34:07.664Z,24.50
2019-03-25T14:36:36.106Z,21.90
2019-03-25T14:39:06.915Z,18.30
2019-03-25T14:41:35.523Z,16.70
2019-03-25T14:44:04.419Z,15.30
2019-03-25T14:46:32.890Z,16.40
2019-03-25T14:49:01.811Z,18.30
2019-03-25T14:51:30.290Z,22.90
2019-03-25T14:53:58.791Z,36.60
2019-03-25T14:56:27.441Z,50.40
2019-03-25T14:58:55.892Z,65.70
2019-03-25T15:01:24.641Z,77.50
2019-03-25T15:03:53.365Z,81.70
2019-03-25T15:06:21.937Z,84.70
2019-03-25T15:08:50.375Z,86.50
2019-03-25T15:11:19.060Z,88.60
2019-03-25T15:13:47.713Z,90.50
2019-03-25T15:16:16.361Z,88.80
2019-03-25T15:18:44.939Z,87.40
2019-03-25T15:21:13.452Z,88.10
2019-03-25T15:23:42.183Z,86.50
2019-03-25T15:26:10.602Z,86.30
2019-03-25T15:28:39.036Z,87.00
2019-03-25T15:31:07.466Z,84.30
2019-03-25T15:33:35.985Z,82.20
2019-03-25T15:36:04.529Z,78.40
2019-03-25T15:38:33.297Z,77.20
2019-03-25T15:41:01.707Z,74.60
2019-03-25T15:43:30.261Z,73.50
2019-03-25T15:45:58.771Z,70.60
2019-03-25T15:48:27.405Z,70.60
2019-03-25T15:50:55.866Z,70.40
2019-03-25T15:53:24.556Z,68.60
2019-03-25T15:55:52.975Z,68.60
2019-03-25T15:58:26.245Z,65.60
2019-03-25T16:00:52.115Z,66.00
2019-03-25T16:03:20.542Z,67.80
2019-03-25T16:05:49.071Z,68.20
2019-03-25T16:08:17.760Z,69.70
2019-03-25T16:10:46.431Z,68.50
2019-03-25T16:13:14.946Z,69.80
2019-03-25T16:15:43.426Z,70.60
2019-03-25T16:18:32.609Z,70.60
2019-03-25T16:21:01.079Z,70.60
2019-03-25T16:23:29.511Z,70.70
2019-03-25T16:25:57.934Z,72.20
2019-03-25T16:28:26.351Z,73.20
2019-03-25T16:30:59.099Z,78.80
2019-03-25T16:33:25.039Z,84.60
2019-03-25T16:35:53.502Z,89.10
2019-03-25T16:38:21.948Z,91.00
2019-03-25T16:40:50.429Z,91.40
2019-03-25T16:43:19.102Z,91.90
2019-03-25T16:45:48.327Z,92.60
2019-03-25T16:48:17.310Z,92.80
2019-03-25T16:50:45.774Z,93.10
2019-03-25T16:53:14.347Z,93.50
2019-03-25T16:55:42.819Z,93.80
2019-03-25T16:58:11.359Z,94.20
2019-03-25T17:00:39.873Z,94.40
2019-03-25T17:03:08.308Z,94.70
2019-03-25T17:05:36.762Z,94.70
2019-03-25T17:08:05.864Z,94.50
2019-03-25T17:10:34.351Z,94.20
2019-03-25T17:13:02.822Z,94.00
2019-03-25T17:15:31.336Z,93.70
2019-03-25T17:17:59.775Z,93.80
2019-03-25T17:20:28.615Z,93.80
2019-03-25T17:22:57.382Z,94.00
2019-03-25T17:25:26.120Z,93.90
2019-03-25T17:27:54.687Z,93.80
2019-03-25T17:30:24.351Z,93.50
2019-03-25T17:32:53.042Z,93.60
2019-03-25T17:35:21.705Z,93.40
2019-03-25T17:37:50.203Z,93.00
2019-03-25T17:40:18.859Z,93.30
2019-03-25T17:42:47.500Z,93.90
2019-03-25T17:45:16.347Z,94.00
2019-03-25T17:47:44.864Z,93.70
2019-03-25T17:50:13.721Z,93.50
2019-03-25T17:52:42.196Z,93.80
2019-03-25T17:55:10.937Z,93.80
2019-03-25T17:57:39.666Z,93.60
2019-03-25T18:00:12.085Z,92.70
2019-03-25T18:02:40.762Z,92.30
2019-03-25T18:05:10.736Z,91.80
2019-03-25T18:07:39.419Z,91.50
2019-03-25T18:10:08.499Z,91.50
2019-03-25T18:12:38.964Z,91.40
2019-03-25T18:15:12.305Z,91.70
2019-03-25T18:17:41.096Z,91.30
2019-03-25T18:20:18.092Z,91.40
2019-03-25T18:22:40.291Z,91.30
2019-03-25T18:25:09.266Z,91.40
2019-03-25T18:27:37.802Z,91.20
2019-03-25T18:30:07.647Z,91.00
2019-03-25T18:32:36.317Z,90.90
2019-03-25T18:35:05.906Z,90.90
2019-03-25T18:37:34.642Z,90.30
2019-03-25T18:40:03.309Z,90.60
2019-03-25T18:42:31.841Z,91.00
2019-03-25T18:45:00.540Z,92.00
2019-03-25T18:47:29.418Z,92.90
2019-03-25T18:49:57.981Z,93.40
2019-03-25T18:52:26.959Z,93.70
2019-03-25T18:54:55.658Z,94.20
2019-03-25T18:57:24.227Z,94.60
2019-03-25T18:59:52.725Z,94.90
2019-03-25T19:02:21.222Z,95.10
2019-03-25T19:04:49.654Z,95.10
2019-03-25T19:07:18.241Z,95.10
2019-03-25T19:09:47.263Z,95.30
2019-03-25T19:12:15.715Z,95.30
2019-03-25T19:14:44.214Z,95.40
2019-03-25T19:17:12.791Z,95.40
2019-03-25T19:19:41.549Z,95.50
2019-03-25T19:22:12.628Z,95.20
2019-03-25T19:24:40.430Z,95.20
2019-03-25T19:27:08.859Z,95.10
2019-03-25T19:29:37.308Z,95.10
2019-03-25T19:32:07.232Z,95.00
2019-03-25T19:34:36.040Z,94.90
2019-03-25T19:37:04.547Z,95.00
2019-03-25T19:39:33.054Z,94.40
2019-03-25T19:42:01.565Z,94.00
2019-03-25T19:44:29.998Z,94.00
2019-03-25T19:46:58.432Z,93.90
2019-03-25T19:49:27.176Z,93.80
2019-03-25T19:51:55.717Z,93.70
2019-03-25T19:54:24.152Z,93.50
2019-03-25T19:56:52.829Z,93.60
2019-03-25T19:59:21.510Z,93.20
2019-03-25T20:01:49.983Z,93.20
2019-03-25T20:04:18.499Z,93.40
2019-03-25T20:06:47.201Z,93.30
2019-03-25T20:09:15.703Z,93.40
2019-03-25T20:11:44.125Z,93.20
2019-03-25T20:14:12.630Z,93.00
2019-03-25T20:16:41.119Z,92.90
2019-03-25T20:19:09.820Z,92.90
2019-03-25T20:21:38.259Z,92.80
2019-03-25T20:24:06.744Z,92.80
2019-03-25T20:26:35.209Z,93.00
2019-03-25T20:29:06.348Z,92.70
2019-03-25T20:31:34.530Z,92.70
2019-03-25T20:34:10.901Z,92.60
2019-03-25T20:36:33.116Z,92.60
2019-03-25T20:39:01.608Z,92.40
2019-03-25T20:41:30.334Z,92.70
2019-03-25T20:43:58.813Z,92.80
2019-03-25T20:46:27.525Z,92.80
2019-03-25T20:48:55.974Z,92.90
2019-03-25T20:51:24.410Z,93.00
2019-03-25T20:53:52.927Z,93.30
2019-03-25T20:56:21.406Z,93.50
2019-03-25T20:58:49.841Z,93.70
2019-03-25T21:01:18.357Z,94.00
2019-03-25T21:03:46.895Z,93.90
2019-03-25T21:06:15.370Z,93.90
2019-03-25T21:08:43.785Z,94.00
2019-03-25T21:11:12.256Z,94.00
2019-03-25T21:13:40.983Z,93.90
2019-03-25T21:16:09.464Z,93.70
2019-03-25T21:18:38.215Z,93.70
2019-03-25T21:21:06.687Z,93.70
2019-03-25T21:23:35.362Z,93.80
2019-03-25T21:26:03.903Z,93.70
2019-03-25T21:28:33.003Z,93.50
2019-03-25T21:31:01.520Z,93.30
2019-03-25T21:33:30.043Z,93.50
2019-03-25T21:35:58.556Z,93.20
2019-03-25T21:38:27.055Z,93.00
2019-03-25T21:40:55.542Z,93.00
2019-03-25T21:43:24.029Z,93.10
2019-03-25T21:45:52.764Z,92.90
2019-03-25T21:48:21.417Z,93.00
2019-03-25T21:50:49.955Z,92.80
2019-03-25T21:53:18.509Z,92.80
2019-03-25T21:55:46.990Z,92.70
2019-03-25T21:58:15.470Z,92.80
2019-03-25T22:00:44.147Z,93.00
2019-03-25T22:03:12.839Z,92.80
2019-03-25T22:05:41.839Z,92.90
2019-03-25T22:08:10.302Z,92.60
2019-03-25T22:10:38.988Z,92.50
2019-03-25T22:13:07.406Z,92.90
2019-03-25T22:15:35.834Z,92.80
2019-03-25T22:18:04.289Z,92.40
2019-03-25T22:20:32.717Z,92.50
2019-03-25T22:23:01.397Z,92.50
2019-03-25T22:25:29.830Z,92.20
2019-03-25T22:27:58.253Z,92.30
2019-03-25T22:30:26.698Z,92.60
2019-03-25T22:32:55.105Z,92.10
2019-03-25T22:35:23.750Z,92.40
2019-03-25T22:37:52.436Z,92.30
2019-03-25T22:40:21.160Z,92.60
2019-03-25T22:42:49.583Z,92.50
2019-03-25T22:45:21.090Z,92.40
2019-03-25T22:47:49.509Z,92.20
2019-03-25T22:50:31.618Z,92.40
2019-03-25T22:53:00.102Z,92.40
2019-03-25T22:55:28.594Z,92.50
2019-03-25T22:57:57.162Z,92.60
2019-03-25T23:00:27.497Z,92.40
2019-03-25T23:02:55.991Z,92.50
2019-03-25T23:05:24.417Z,92.70
2019-03-25T23:07:52.850Z,92.50
2019-03-25T23:10:21.278Z,92.30
2019-03-25T23:12:49.695Z,92.20
2019-03-25T23:15:18.378Z,92.10
2019-03-25T23:17:47.048Z,92.30
2019-03-25T23:20:15.726Z,92.50
2019-03-25T23:22:44.384Z,92.40
2019-03-25T23:25:12.810Z,92.10
2019-03-25T23:27:41.226Z,92.00
2019-03-25T23:30:10.017Z,91.50
2019-03-25T23:32:38.742Z,91.50
2019-03-25T23:35:07.169Z,91.90
2019-03-25T23:37:35.860Z,92.00
2019-03-25T23:40:06.382Z,92.20
2019-03-25T23:42:34.798Z,92.50
2019-03-25T23:45:03.294Z,92.20
2019-03-25T23:47:31.720Z,92.30
2019-03-25T23:50:00.250Z,92.00
2019-03-25T23:52:28.735Z,92.10
2019-03-25T23:54:57.378Z,91.70
2019-03-25T23:57:25.849Z,91.40
2019-03-25T23:59:54.258Z,91.40
